Time;durP1;ratioP1;P1;durP2;ratioP2;P2;SDS_P1;SDS_P2;PMS_P1;PMS_P2;Temp;Humidity;BMP_temperature;BMP_pressure;BME280_temperature;BME280_humidity;BME280_pressure;Samples;Min_cycle;Max_cycle;Signal;HPM_P1;HPM_P2
2021/03/26 00:00:37;;;;;;;3.37;1.43;;;22.80;24.70;;;;;;5031956;28;20205;-60
2021/03/26 00:03:03;;;;;;;1.43;1.33;;;22.90;24.80;;;;;;5031660;28;20205;-60
2021/03/26 00:05:29;;;;;;;1.83;1.50;;;22.90;25.30;;;;;;5030045;28;20210;-60
2021/03/26 00:07:55;;;;;;;1.50;1.40;;;22.90;24.80;;;;;;5031621;28;20236;-58
2021/03/26 00:10:21;;;;;;;1.83;1.40;;;22.90;24.80;;;;;;5030846;28;20210;-59
2021/03/26 00:12:47;;;;;;;1.50;1.40;;;22.80;24.70;;;;;;5031554;28;20637;-59
2021/03/26 00:15:13;;;;;;;1.57;1.23;;;22.90;24.80;;;;;;5029806;28;20213;-59
2021/03/26 00:17:39;;;;;;;1.60;1.50;;;22.90;24.80;;;;;;5031006;28;20223;-59
2021/03/26 00:20:05;;;;;;;1.40;1.30;;;22.90;24.80;;;;;;5029347;28;21774;-59
2021/03/26 00:22:31;;;;;;;1.60;1.43;;;22.90;24.80;;;;;;5029121;28;20220;-59
2021/03/26 00:24:57;;;;;;;2.47;1.40;;;22.90;24.80;;;;;;5031645;28;20287;-59
2021/03/26 00:27:23;;;;;;;2.23;1.70;;;22.90;24.80;;;;;;5028707;28;20253;-59
2021/03/26 00:29:49;;;;;;;1.50;1.40;;;22.90;24.80;;;;;;5029885;28;20334;-59
2021/03/26 00:32:15;;;;;;;1.40;1.30;;;22.90;24.80;;;;;;5031541;28;20421;-59
2021/03/26 00:34:41;;;;;;;2.37;1.60;;;22.90;24.90;;;;;;5030021;28;20685;-60
2021/03/26 00:37:07;;;;;;;1.50;1.40;;;22.90;24.80;;;;;;5031259;28;20256;-59
2021/03/26 00:39:33;;;;;;;1.67;1.57;;;22.90;24.80;;;;;;5030303;28;20209;-60
2021/03/26 00:41:59;;;;;;;1.90;1.43;;;22.90;24.80;;;;;;5029624;28;20212;-60
2021/03/26 00:44:25;;;;;;;2.33;1.67;;;22.90;24.80;;;;;;5029646;28;20213;-60
2021/03/26 00:46:51;;;;;;;1.93;1.30;;;22.90;24.80;;;;;;5031427;28;20216;-59
2021/03/26 00:49:17;;;;;;;1.40;1.30;;;22.90;24.80;;;;;;5030461;28;20279;-60
2021/03/26 00:51:43;;;;;;;1.40;1.30;;;22.90;24.80;;;;;;5028236;28;20216;-60
2021/03/26 00:54:09;;;;;;;1.43;1.33;;;22.90;24.90;;;;;;5029346;28;20235;-59
2021/03/26 00:56:35;;;;;;;1.30;1.20;;;22.90;24.90;;;;;;5013967;28;20572;-59
2021/03/26 00:59:01;;;;;;;2.27;1.50;;;22.80;24.80;;;;;;5026640;28;20725;-59
2021/03/26 01:01:27;;;;;;;2.10;1.60;;;22.90;24.90;;;;;;5030929;28;20215;-60
2021/03/26 01:03:53;;;;;;;1.60;1.50;;;22.90;24.90;;;;;;5030637;28;20210;-59
2021/03/26 01:06:20;;;;;;;1.40;1.30;;;22.90;24.90;;;;;;5029527;28;20204;-60
2021/03/26 01:08:46;;;;;;;1.40;1.30;;;22.80;24.90;;;;;;5030009;28;20322;-60
2021/03/26 01:11:12;;;;;;;1.50;1.40;;;22.90;24.90;;;;;;5029670;28;20199;-59
2021/03/26 01:13:38;;;;;;;2.03;1.40;;;22.80;24.90;;;;;;5029797;28;20231;-60
2021/03/26 01:16:04;;;;;;;1.10;1.10;;;22.90;25.00;;;;;;5030580;28;20209;-60
2021/03/26 01:18:30;;;;;;;1.40;1.30;;;22.90;25.00;;;;;;5030203;28;20221;-60
2021/03/26 01:20:56;;;;;;;1.40;1.30;;;22.80;24.90;;;;;;5028999;28;20216;-60
2021/03/26 01:23:22;;;;;;;1.33;1.23;;;22.80;24.90;;;;;;5029981;28;20213;-59
2021/03/26 01:25:48;;;;;;;1.30;1.20;;;22.80;24.90;;;;;;5029414;28;20608;-60
2021/03/26 01:28:14;;;;;;;1.70;1.50;;;22.80;24.90;;;;;;5029288;28;20225;-59
2021/03/26 01:30:40;;;;;;;1.47;1.37;;;22.90;25.00;;;;;;5029666;28;20287;-60
2021/03/26 01:33:06;;;;;;;3.17;1.47;;;22.80;24.90;;;;;;5029287;28;20708;-60
2021/03/26 01:35:35;;;;;;;1.40;1.30;;;22.80;24.90;;;;;;5029757;28;20224;-60
2021/03/26 01:38:01;;;;;;;1.27;1.20;;;22.80;25.00;;;;;;5030237;28;20275;-60
2021/03/26 01:40:27;;;;;;;1.50;1.40;;;22.80;25.00;;;;;;5028686;28;20569;-60
2021/03/26 01:42:53;;;;;;;1.40;1.30;;;22.80;25.00;;;;;;5027969;28;20355;-59
2021/03/26 01:45:19;;;;;;;1.23;1.13;;;22.80;25.00;;;;;;5029422;28;20546;-59
2021/03/26 01:47:45;;;;;;;1.37;1.27;;;22.80;24.90;;;;;;5029077;28;20225;-59
2021/03/26 01:50:11;;;;;;;1.50;1.40;;;22.80;25.00;;;;;;5030453;28;20219;-60
2021/03/26 01:52:37;;;;;;;1.23;1.20;;;22.80;24.90;;;;;;5029237;28;20287;-59
2021/03/26 01:55:03;;;;;;;1.93;1.33;;;22.80;24.90;;;;;;5028159;28;20272;-59
2021/03/26 01:57:29;;;;;;;1.40;1.30;;;22.80;25.00;;;;;;5029381;28;20287;-59
2021/03/26 01:59:55;;;;;;;1.53;1.37;;;22.80;25.00;;;;;;5023324;28;20206;-59
2021/03/26 02:02:21;;;;;;;1.40;1.30;;;22.80;25.00;;;;;;5029057;28;20217;-59
2021/03/26 02:04:47;;;;;;;1.20;1.10;;;22.80;25.00;;;;;;5030358;28;20260;-59
2021/03/26 02:07:13;;;;;;;1.43;1.33;;;22.80;25.00;;;;;;5028696;28;20236;-59
2021/03/26 02:09:39;;;;;;;1.30;1.20;;;22.80;25.00;;;;;;5030007;28;20201;-59
2021/03/26 02:12:05;;;;;;;1.23;1.13;;;22.80;25.00;;;;;;5029323;28;20653;-59
2021/03/26 02:14:31;;;;;;;1.37;1.27;;;22.80;25.10;;;;;;5028915;28;20347;-59
2021/03/26 02:16:57;;;;;;;1.30;1.20;;;22.80;25.10;;;;;;5028229;28;20200;-59
2021/03/26 02:19:23;;;;;;;1.40;1.30;;;22.80;25.10;;;;;;5029021;28;20205;-59
2021/03/26 02:21:49;;;;;;;1.30;1.20;;;22.80;25.10;;;;;;5029327;28;20213;-59
2021/03/26 02:24:15;;;;;;;1.17;1.07;;;22.80;25.20;;;;;;5028533;28;20392;-60
2021/03/26 02:26:41;;;;;;;1.50;1.40;;;22.80;25.10;;;;;;5029138;28;20345;-60
2021/03/26 02:29:22;;;;;;;1.90;1.50;;;22.80;25.10;;;;;;5027678;28;20735;-60
2021/03/26 02:31:48;;;;;;;1.20;1.10;;;22.80;25.10;;;;;;5029848;28;20216;-60
2021/03/26 02:34:14;;;;;;;1.60;1.20;;;22.80;25.10;;;;;;5027722;28;20229;-60
2021/03/26 02:36:40;;;;;;;1.53;1.40;;;22.80;25.10;;;;;;5028919;28;20201;-60
2021/03/26 02:39:06;;;;;;;1.30;1.20;;;22.80;25.70;;;;;;5028153;28;20202;-60
2021/03/26 02:41:32;;;;;;;1.17;1.10;;;22.80;25.20;;;;;;5030043;28;20584;-60
2021/03/26 02:43:58;;;;;;;1.50;1.20;;;22.80;25.20;;;;;;5028607;28;20208;-60
2021/03/26 02:46:24;;;;;;;1.67;1.50;;;22.80;25.20;;;;;;5027607;28;20221;-60
2021/03/26 02:48:50;;;;;;;2.10;1.20;;;22.80;25.10;;;;;;5027223;28;20228;-61
2021/03/26 02:51:16;;;;;;;1.40;1.30;;;22.80;25.20;;;;;;5029964;28;20205;-61
2021/03/26 02:53:42;;;;;;;1.40;1.30;;;22.90;25.20;;;;;;5028268;28;20230;-60
2021/03/26 02:56:08;;;;;;;1.20;1.13;;;22.80;25.20;;;;;;5024076;28;20205;-61
2021/03/26 02:58:34;;;;;;;1.40;1.30;;;22.80;25.20;;;;;;5025526;28;20539;-60
2021/03/26 03:01:00;;;;;;;1.50;1.40;;;22.80;25.20;;;;;;5028832;28;20206;-60
2021/03/26 03:03:26;;;;;;;1.30;1.20;;;22.80;25.20;;;;;;5028410;28;20202;-60
2021/03/26 03:05:52;;;;;;;1.00;1.00;;;22.80;25.20;;;;;;5028584;28;20206;-60
2021/03/26 03:08:18;;;;;;;1.20;1.10;;;22.80;25.20;;;;;;5025525;28;20221;-60
2021/03/26 03:10:44;;;;;;;1.20;1.10;;;22.80;25.30;;;;;;5028809;28;20210;-60
2021/03/26 03:13:10;;;;;;;1.30;1.20;;;22.80;25.30;;;;;;5028765;28;20229;-59
2021/03/26 03:15:36;;;;;;;1.30;1.20;;;22.80;25.20;;;;;;5029589;28;20662;-60
2021/03/26 03:18:02;;;;;;;1.20;1.10;;;22.80;25.30;;;;;;5027269;28;20218;-60
2021/03/26 03:20:28;;;;;;;1.40;1.30;;;22.80;25.20;;;;;;5031140;28;20224;-60
2021/03/26 03:22:54;;;;;;;1.10;1.00;;;22.80;25.30;;;;;;5032278;28;20209;-60
2021/03/26 03:25:20;;;;;;;1.43;1.33;;;22.80;25.30;;;;;;5032722;28;20217;-59
2021/03/26 03:27:46;;;;;;;1.70;1.10;;;22.80;25.30;;;;;;5031076;28;20256;-60
2021/03/26 03:30:12;;;;;;;1.30;1.20;;;22.80;25.30;;;;;;5033125;28;20311;-60
2021/03/26 03:32:38;;;;;;;1.80;1.20;;;22.80;25.30;;;;;;5031902;28;20608;-60
2021/03/26 03:35:04;;;;;;;1.30;1.20;;;22.80;25.30;;;;;;5032217;28;20234;-60
2021/03/26 03:37:30;;;;;;;2.77;1.23;;;22.80;25.30;;;;;;5031501;28;20233;-60
2021/03/26 03:39:56;;;;;;;1.30;1.20;;;22.80;25.50;;;;;;5032687;28;20220;-60
2021/03/26 03:42:22;;;;;;;1.43;1.10;;;22.80;25.60;;;;;;5031986;28;20206;-60
2021/03/26 03:44:48;;;;;;;1.37;1.27;;;22.80;25.60;;;;;;5032052;28;20296;-60
2021/03/26 03:47:14;;;;;;;1.10;1.10;;;22.80;25.50;;;;;;5029971;28;20280;-60
2021/03/26 03:49:39;;;;;;;1.20;1.10;;;22.80;25.50;;;;;;5031767;28;20206;-61
2021/03/26 03:52:05;;;;;;;1.67;1.50;;;22.80;25.50;;;;;;5031587;28;20214;-60
2021/03/26 03:54:31;;;;;;;1.63;1.53;;;22.80;25.40;;;;;;5032159;28;20233;-59
2021/03/26 03:56:57;;;;;;;1.23;1.13;;;22.80;25.50;;;;;;5024357;28;20613;-60
2021/03/26 03:59:23;;;;;;;1.27;1.10;;;22.80;25.40;;;;;;5028649;28;20220;-60
2021/03/26 04:01:49;;;;;;;1.37;1.27;;;22.80;25.50;;;;;;5031144;28;20202;-59
2021/03/26 04:04:16;;;;;;;1.23;1.13;;;22.80;26.00;;;;;;5032048;28;20209;-60
2021/03/26 04:06:41;;;;;;;1.40;1.30;;;22.80;25.50;;;;;;5031186;28;20237;-59
2021/03/26 04:09:07;;;;;;;1.50;1.40;;;22.80;25.50;;;;;;5031305;28;20206;-59
2021/03/26 04:11:33;;;;;;;1.50;1.30;;;22.80;25.50;;;;;;5031849;28;20206;-59
2021/03/26 04:13:59;;;;;;;1.30;1.20;;;22.80;25.50;;;;;;5032237;28;20233;-59
2021/03/26 04:16:25;;;;;;;1.30;1.20;;;22.80;25.60;;;;;;5030854;28;20645;-59
2021/03/26 04:18:51;;;;;;;1.40;1.20;;;22.80;25.50;;;;;;5030507;28;20209;-60
2021/03/26 04:21:17;;;;;;;1.20;1.10;;;22.80;25.50;;;;;;5030851;28;20251;-59
2021/03/26 04:23:43;;;;;;;1.30;1.20;;;22.80;25.50;;;;;;5032411;28;20217;-60
2021/03/26 04:26:09;;;;;;;2.03;1.10;;;22.80;25.50;;;;;;5030612;28;20194;-60
2021/03/26 04:28:35;;;;;;;1.30;1.20;;;22.80;25.60;;;;;;5030766;28;20664;-60
2021/03/26 04:31:01;;;;;;;1.53;1.43;;;22.80;25.50;;;;;;5031318;28;20201;-60
2021/03/26 04:33:27;;;;;;;1.40;1.30;;;22.80;25.60;;;;;;5030492;28;20723;-60
2021/03/26 04:35:53;;;;;;;1.40;1.30;;;22.80;25.60;;;;;;5031959;28;20308;-60
2021/03/26 04:38:19;;;;;;;1.30;1.20;;;22.80;25.60;;;;;;5029096;28;20373;-60
2021/03/26 04:40:45;;;;;;;1.40;1.30;;;22.80;25.60;;;;;;5031310;28;20237;-60
2021/03/26 04:43:11;;;;;;;1.67;1.40;;;22.80;25.60;;;;;;5031639;28;20271;-60
2021/03/26 04:45:37;;;;;;;1.50;1.40;;;22.80;25.60;;;;;;5030144;28;20565;-60
2021/03/26 04:48:03;;;;;;;1.87;1.30;;;22.80;25.60;;;;;;5029592;28;20221;-60
2021/03/26 04:50:29;;;;;;;1.50;1.40;;;22.80;25.60;;;;;;5028217;28;20202;-60
2021/03/26 04:52:55;;;;;;;1.37;1.20;;;22.80;25.50;;;;;;5030418;28;20906;-60
2021/03/26 04:55:21;;;;;;;1.10;1.10;;;22.80;25.50;;;;;;5030387;28;20246;-60
2021/03/26 04:57:47;;;;;;;1.67;1.47;;;22.80;25.50;;;;;;5023635;28;20234;-60
2021/03/26 05:00:13;;;;;;;1.83;1.23;;;22.80;25.50;;;;;;5024223;28;20210;-59
2021/03/26 05:02:41;;;;;;;3.10;1.30;;;22.80;25.60;;;;;;5029660;28;20266;-59
2021/03/26 05:05:07;;;;;;;1.57;1.47;;;22.80;25.60;;;;;;5044084;22;20217;-62
2021/03/26 05:07:33;;;;;;;1.30;1.20;;;22.80;25.60;;;;;;5012740;28;20249;-62
2021/03/26 05:09:59;;;;;;;1.40;1.30;;;22.80;25.60;;;;;;5010710;28;20286;-62
2021/03/26 05:12:25;;;;;;;1.23;1.20;;;22.80;25.60;;;;;;5010184;28;20209;-62
2021/03/26 05:14:51;;;;;;;1.30;1.20;;;22.80;25.60;;;;;;5010689;28;20206;-62
2021/03/26 05:17:17;;;;;;;1.30;1.20;;;22.80;25.60;;;;;;5009529;28;20222;-62
2021/03/26 05:19:43;;;;;;;1.70;1.03;;;22.80;25.60;;;;;;5011033;28;20202;-62
2021/03/26 05:22:09;;;;;;;2.10;1.63;;;22.80;25.60;;;;;;5009601;28;20229;-62
2021/03/26 05:24:35;;;;;;;1.80;1.27;;;22.80;25.60;;;;;;5010904;28;20625;-62
2021/03/26 05:27:01;;;;;;;1.17;1.10;;;22.80;25.60;;;;;;5009797;28;20238;-62
2021/03/26 05:29:27;;;;;;;2.13;1.20;;;22.80;25.60;;;;;;5010929;28;20344;-62
2021/03/26 05:31:53;;;;;;;1.63;1.20;;;22.80;25.60;;;;;;5010459;28;20254;-62
2021/03/26 05:34:19;;;;;;;1.50;1.40;;;22.80;25.60;;;;;;5010481;28;20230;-62
2021/03/26 05:36:45;;;;;;;1.47;1.37;;;22.80;25.60;;;;;;5009907;28;20232;-62
2021/03/26 05:39:11;;;;;;;1.83;1.33;;;22.80;25.60;;;;;;5010741;28;20202;-62
2021/03/26 05:41:37;;;;;;;1.60;1.30;;;22.80;25.70;;;;;;5011064;28;20798;-62
2021/03/26 05:44:03;;;;;;;1.20;1.20;;;22.80;25.60;;;;;;5009042;28;20230;-62
2021/03/26 05:46:29;;;;;;;1.93;1.20;;;22.80;25.60;;;;;;5008959;28;20226;-62
2021/03/26 05:48:55;;;;;;;1.57;1.40;;;22.80;25.70;;;;;;5008362;28;20221;-62
2021/03/26 05:51:21;;;;;;;1.23;1.20;;;22.80;25.60;;;;;;5011083;28;20205;-62
2021/03/26 05:53:47;;;;;;;1.70;1.20;;;22.80;25.70;;;;;;5009705;28;20281;-62
2021/03/26 05:56:13;;;;;;;1.30;1.20;;;22.80;25.60;;;;;;5010039;28;20221;-61
2021/03/26 05:58:39;;;;;;;1.30;1.20;;;22.80;25.70;;;;;;5008813;28;20661;-62
2021/03/26 06:01:05;;;;;;;1.57;1.30;;;22.80;25.70;;;;;;5010286;28;20209;-61
2021/03/26 06:03:31;;;;;;;1.80;1.20;;;22.80;25.70;;;;;;5009357;28;20209;-61
2021/03/26 06:05:57;;;;;;;1.40;1.30;;;22.80;25.60;;;;;;5010624;28;20302;-61
2021/03/26 06:08:22;;;;;;;1.77;1.30;;;22.80;25.70;;;;;;5007964;28;20288;-62
2021/03/26 06:10:48;;;;;;;1.50;1.20;;;22.80;25.70;;;;;;5009400;28;20213;-61
2021/03/26 06:13:14;;;;;;;1.23;1.13;;;22.80;25.70;;;;;;5010536;28;20245;-62
2021/03/26 06:15:40;;;;;;;1.37;1.20;;;22.80;25.70;;;;;;5009250;28;20206;-62
2021/03/26 06:18:07;;;;;;;1.10;1.00;;;22.80;25.70;;;;;;5008487;28;20356;-62
2021/03/26 06:20:33;;;;;;;1.20;1.10;;;22.80;25.70;;;;;;5009551;28;20272;-62
2021/03/26 06:22:59;;;;;;;1.27;1.17;;;22.80;25.70;;;;;;5010389;28;20663;-62
2021/03/26 06:25:24;;;;;;;1.10;1.10;;;22.80;25.70;;;;;;5009303;28;20202;-62
2021/03/26 06:27:50;;;;;;;1.47;1.37;;;22.80;25.70;;;;;;5008936;28;20568;-62
2021/03/26 06:30:16;;;;;;;1.47;1.10;;;22.80;25.70;;;;;;5009794;28;20214;-62
2021/03/26 06:32:43;;;;;;;1.30;1.20;;;22.80;25.70;;;;;;5010149;28;20640;-62
2021/03/26 06:35:09;;;;;;;1.40;1.30;;;22.80;25.70;;;;;;5009540;28;20301;-62
2021/03/26 06:37:35;;;;;;;1.30;1.20;;;22.80;25.70;;;;;;5008231;28;20246;-62
2021/03/26 06:40:01;;;;;;;1.43;1.33;;;22.80;25.70;;;;;;5009099;28;20207;-62
2021/03/26 06:42:27;;;;;;;1.00;1.00;;;22.80;25.70;;;;;;5009262;28;20568;-62
2021/03/26 06:44:53;;;;;;;1.40;1.30;;;22.80;25.70;;;;;;5009778;28;20211;-62
2021/03/26 06:47:19;;;;;;;1.27;1.17;;;22.80;25.80;;;;;;5007310;28;20565;-62
2021/03/26 06:49:47;;;;;;;1.23;1.10;;;22.80;25.70;;;;;;5009032;28;20207;-62
2021/03/26 06:52:13;;;;;;;1.13;1.10;;;22.80;26.30;;;;;;5008360;28;20586;-63
2021/03/26 06:54:39;;;;;;;2.70;1.20;;;22.80;26.30;;;;;;5006853;28;20250;-60
2021/03/26 06:57:05;;;;;;;1.83;1.20;;;22.80;26.30;;;;;;5002267;28;20261;-64
2021/03/26 06:59:31;;;;;;;3.43;1.40;;;22.90;26.70;;;;;;5012997;28;20202;-64
2021/03/26 07:01:57;;;;;;;2.87;1.37;;;22.90;27.00;;;;;;5013417;28;20213;-64
2021/03/26 07:04:23;;;;;;;3.57;1.40;;;22.90;26.70;;;;;;5013185;28;20210;-64
2021/03/26 07:06:49;;;;;;;2.17;1.50;;;22.80;26.60;;;;;;5010650;28;20603;-59
2021/03/26 07:09:15;;;;;;;3.70;1.70;;;22.80;27.00;;;;;;5011186;28;20219;-62
2021/03/26 07:11:41;;;;;;;7.53;1.60;;;22.90;27.90;;;;;;5006230;28;20352;-64
2021/03/26 07:14:09;;;;;;;4.53;1.70;;;23.00;27.90;;;;;;5012661;28;20230;-61
2021/03/26 07:16:35;;;;;;;4.63;1.70;;;23.00;27.20;;;;;;5013525;28;20258;-62
2021/03/26 07:19:01;;;;;;;4.50;1.70;;;23.00;26.80;;;;;;5013109;28;20207;-63
2021/03/26 07:21:27;;;;;;;4.40;1.60;;;22.90;26.60;;;;;;5012216;28;20230;-59
2021/03/26 07:23:53;;;;;;;4.67;1.50;;;22.90;26.70;;;;;;5008537;28;20210;-69
2021/03/26 07:26:19;;;;;;;5.53;2.20;;;22.90;27.40;;;;;;5011405;28;20218;-55
2021/03/26 07:28:45;;;;;;;2.67;1.30;;;22.90;26.70;;;;;;5013114;28;20209;-56
2021/03/26 07:31:11;;;;;;;2.67;1.60;;;22.90;26.50;;;;;;5012225;28;20253;-56
2021/03/26 07:33:37;;;;;;;4.93;1.93;;;22.90;27.00;;;;;;5011359;28;20257;-55
2021/03/26 07:36:03;;;;;;;1.53;1.40;;;23.00;26.40;;;;;;5011971;28;20222;-59
2021/03/26 07:38:29;;;;;;;2.30;1.30;;;23.00;26.40;;;;;;5012788;28;20671;-59
2021/03/26 07:40:55;;;;;;;2.97;1.40;;;23.00;26.30;;;;;;5012318;28;20229;-59
2021/03/26 07:43:21;;;;;;;2.50;1.30;;;23.00;26.20;;;;;;5012109;28;20256;-58
2021/03/26 07:45:47;;;;;;;1.93;1.43;;;23.00;26.20;;;;;;5016828;28;20713;-55
2021/03/26 07:48:13;;;;;;;4.63;1.47;;;23.00;26.90;;;;;;5013530;28;20211;-56
2021/03/26 07:50:39;;;;;;;2.90;1.53;;;23.00;26.20;;;;;;5012002;28;20481;-71
2021/03/26 07:53:05;;;;;;;2.07;1.40;;;23.00;27.20;;;;;;5012129;28;20685;-70
2021/03/26 07:55:32;;;;;;;1.93;1.50;;;23.00;26.90;;;;;;5024077;28;20267;-70
2021/03/26 07:57:58;;;;;;;2.60;1.60;;;23.00;26.50;;;;;;5012207;28;20233;-70
2021/03/26 08:00:23;;;;;;;2.00;1.80;;;23.00;26.70;;;;;;5011278;28;20203;-68
2021/03/26 08:02:49;;;;;;;2.00;1.40;;;23.10;26.80;;;;;;4997781;28;20576;-69
2021/03/26 08:05:15;;;;;;;3.50;1.60;;;23.10;26.70;;;;;;5010715;28;20209;-63
2021/03/26 08:07:41;;;;;;;6.87;1.90;;;23.10;27.70;;;;;;5012262;28;20202;-65
2021/03/26 08:10:07;;;;;;;2.90;1.43;;;23.10;27.90;;;;;;5011094;28;20221;-64
2021/03/26 08:12:33;;;;;;;11.17;5.20;;;23.10;27.50;;;;;;5007052;28;20229;-61
2021/03/26 08:15:00;;;;;;;8.57;4.73;;;21.60;22.20;;;;;;5009606;28;20216;-60
2021/03/26 08:17:26;;;;;;;8.53;5.13;;;21.60;24.00;;;;;;5012261;28;20242;-63
2021/03/26 08:19:52;;;;;;;8.30;6.03;;;21.70;23.00;;;;;;5011385;28;20205;-63
2021/03/26 08:22:18;;;;;;;9.63;6.03;;;21.70;22.30;;;;;;5011716;28;20693;-62
2021/03/26 08:24:44;;;;;;;5.87;4.97;;;21.60;22.20;;;;;;5021062;28;20215;-62
2021/03/26 08:27:10;;;;;;;8.50;4.93;;;21.90;22.60;;;;;;5021502;28;20224;-62
2021/03/26 08:29:36;;;;;;;7.30;4.20;;;22.10;22.60;;;;;;5008518;28;20231;-62
2021/03/26 08:32:02;;;;;;;6.30;4.20;;;22.30;22.80;;;;;;5009023;28;20369;-62
2021/03/26 08:34:28;;;;;;;5.90;3.50;;;22.40;22.90;;;;;;5007135;28;20282;-62
2021/03/26 08:36:53;;;;;;;5.33;3.60;;;22.50;23.10;;;;;;5010827;28;20690;-62
2021/03/26 08:39:19;;;;;;;6.03;3.30;;;22.60;23.50;;;;;;5009857;28;20205;-64
2021/03/26 08:41:45;;;;;;;9.77;3.70;;;22.60;23.70;;;;;;5010566;28;20511;-60
2021/03/26 08:44:11;;;;;;;5.03;3.47;;;22.70;23.90;;;;;;5010526;28;20208;-57
2021/03/26 08:46:37;;;;;;;4.50;3.20;;;22.80;24.00;;;;;;5011167;28;20221;-64
2021/03/26 08:49:03;;;;;;;7.47;4.00;;;22.80;24.00;;;;;;5007909;28;20268;-62
2021/03/26 08:51:29;;;;;;;3.80;2.93;;;22.80;24.00;;;;;;5005721;28;20214;-61
2021/03/26 08:53:55;;;;;;;3.57;3.10;;;22.80;24.00;;;;;;5009046;28;20233;-61
2021/03/26 08:56:21;;;;;;;5.37;3.10;;;22.80;24.20;;;;;;5011279;28;20229;-61
2021/03/26 08:58:47;;;;;;;3.37;2.40;;;22.70;24.30;;;;;;5010928;28;20676;-61
2021/03/26 09:01:14;;;;;;;5.93;3.00;;;22.70;24.30;;;;;;5011839;28;20213;-61
2021/03/26 09:03:40;;;;;;;3.87;2.87;;;22.70;24.40;;;;;;5011501;28;20202;-61
2021/03/26 09:06:06;;;;;;;3.67;3.07;;;22.70;24.40;;;;;;5007366;28;20233;-61
2021/03/26 09:08:32;;;;;;;7.20;3.10;;;22.80;24.60;;;;;;5009020;28;20201;-60
2021/03/26 09:10:58;;;;;;;4.93;3.03;;;22.80;24.60;;;;;;5005730;28;20248;-55
2021/03/26 09:13:24;;;;;;;5.97;3.23;;;22.80;24.70;;;;;;5006612;28;20230;-64
2021/03/26 09:15:50;;;;;;;4.33;2.93;;;22.90;25.10;;;;;;5007866;28;20237;-64
2021/03/26 09:18:16;;;;;;;6.27;4.10;;;22.90;25.10;;;;;;5010269;28;20254;-64
2021/03/26 09:20:42;;;;;;;10.13;4.20;;;22.80;24.80;;;;;;5016046;28;20300;-64
2021/03/26 09:23:08;;;;;;;7.43;5.20;;;22.80;24.40;;;;;;5009451;28;20233;-64
2021/03/26 09:25:34;;;;;;;9.07;5.60;;;22.70;24.00;;;;;;5008379;28;20560;-64
2021/03/26 09:28:00;;;;;;;5.50;4.73;;;22.70;23.80;;;;;;5008107;28;20299;-64
2021/03/26 09:30:26;;;;;;;9.93;5.60;;;22.70;23.70;;;;;;5010902;28;20210;-64
2021/03/26 09:32:52;;;;;;;8.93;5.50;;;22.60;23.10;;;;;;5010094;28;20209;-64
2021/03/26 09:35:18;;;;;;;6.43;4.63;;;22.60;23.00;;;;;;5010421;28;20220;-64
2021/03/26 09:37:44;;;;;;;6.93;5.00;;;22.60;22.90;;;;;;5007368;28;20588;-65
2021/03/26 09:40:10;;;;;;;8.83;5.10;;;22.60;22.90;;;;;;5008249;28;20216;-64
2021/03/26 09:42:36;;;;;;;8.37;5.00;;;22.60;22.50;;;;;;5008738;28;20207;-64
2021/03/26 09:45:02;;;;;;;5.63;4.40;;;22.60;22.70;;;;;;5011063;28;20225;-64
2021/03/26 09:47:28;;;;;;;14.63;5.50;;;22.60;22.80;;;;;;5006096;28;20206;-65
2021/03/26 09:49:54;;;;;;;8.27;4.67;;;22.60;22.40;;;;;;5007644;28;20304;-64
2021/03/26 09:52:20;;;;;;;6.73;5.07;;;22.60;22.50;;;;;;5010068;28;20201;-63
2021/03/26 09:54:46;;;;;;;6.27;4.57;;;22.60;22.30;;;;;;5006834;28;20256;-65
2021/03/26 09:57:12;;;;;;;8.17;5.07;;;22.60;22.40;;;;;;5007682;28;20567;-64
2021/03/26 09:59:38;;;;;;;6.73;5.13;;;22.50;22.30;;;;;;5007043;28;20202;-68
2021/03/26 10:02:04;;;;;;;6.97;4.83;;;22.60;22.20;;;;;;4995635;28;20228;-60
2021/03/26 10:04:30;;;;;;;7.50;4.80;;;22.60;22.30;;;;;;5010339;28;20199;-64
2021/03/26 10:06:56;;;;;;;7.23;5.13;;;22.60;22.20;;;;;;5008300;28;20209;-61
2021/03/26 10:09:25;;;;;;;9.43;4.63;;;22.70;22.20;;;;;;5008937;28;20201;-56
2021/03/26 10:11:51;;;;;;;8.40;4.93;;;22.70;21.90;;;;;;5008575;28;20205;-50
2021/03/26 10:14:17;;;;;;;9.03;5.10;;;22.60;21.90;;;;;;5010254;28;20715;-56
2021/03/26 10:16:43;;;;;;;6.73;4.40;;;22.70;21.50;;;;;;5008331;28;20346;-60
2021/03/26 10:19:09;;;;;;;5.70;4.67;;;22.70;21.80;;;;;;5007445;28;20225;-60
2021/03/26 10:21:35;;;;;;;7.17;4.77;;;22.70;21.80;;;;;;5009213;28;20209;-58
2021/03/26 10:24:01;;;;;;;7.33;5.17;;;22.70;21.90;;;;;;5008130;28;20201;-59
2021/03/26 10:26:27;;;;;;;6.90;4.57;;;22.70;21.70;;;;;;5008808;28;20731;-62
2021/03/26 10:28:53;;;;;;;6.73;5.20;;;22.60;21.60;;;;;;5006815;28;20206;-61
2021/03/26 10:31:18;;;;;;;6.87;5.40;;;22.60;21.40;;;;;;5014244;28;20236;-62
2021/03/26 10:33:44;;;;;;;7.33;5.23;;;22.60;21.00;;;;;;5014032;28;20231;-67
2021/03/26 10:36:10;;;;;;;8.93;5.57;;;22.60;21.20;;;;;;5015370;28;20235;-62
2021/03/26 10:38:36;;;;;;;12.23;5.50;;;22.60;21.40;;;;;;5033690;28;20204;-62
2021/03/26 10:41:04;;;;;;;9.00;5.50;;;22.60;20.60;;;;;;5007972;28;20221;-64
2021/03/26 10:43:30;;;;;;;6.70;4.57;;;22.40;21.30;;;;;;5012929;28;20211;-62
2021/03/26 10:45:56;;;;;;;5.97;4.60;;;22.40;21.30;;;;;;5029399;28;20249;-56
2021/03/26 10:48:22;;;;;;;6.07;5.10;;;22.60;21.10;;;;;;5015134;28;20631;-58
2021/03/26 10:50:48;;;;;;;8.17;5.10;;;22.60;20.90;;;;;;5018892;28;20209;-56
2021/03/26 10:53:14;;;;;;;8.30;4.60;;;22.60;20.70;;;;;;5013303;28;20237;-57
2021/03/26 10:55:40;;;;;;;6.63;4.73;;;22.60;20.80;;;;;;5013460;28;20217;-62
2021/03/26 10:58:06;;;;;;;10.40;4.97;;;22.60;20.70;;;;;;5011321;28;20209;-60
2021/03/26 11:00:32;;;;;;;9.00;5.27;;;22.60;20.50;;;;;;5015354;28;20209;-56
2021/03/26 11:02:58;;;;;;;9.73;5.20;;;22.60;20.90;;;;;;5030880;28;20210;-52
2021/03/26 11:05:26;;;;;;;7.37;5.30;;;22.60;20.10;;;;;;5014275;28;20991;-55
2021/03/26 11:07:52;;;;;;;5.83;4.10;;;22.60;20.30;;;;;;5044162;22;20258;-46
2021/03/26 11:10:18;;;;;;;7.90;4.90;;;22.60;20.30;;;;;;5033181;28;20618;-55
2021/03/26 11:12:44;;;;;;;6.33;4.30;;;22.70;20.20;;;;;;5030325;28;20202;-52
2021/03/26 11:15:10;;;;;;;5.97;4.17;;;22.60;19.90;;;;;;5032158;28;20375;-50
2021/03/26 11:17:36;;;;;;;6.80;4.03;;;22.60;20.20;;;;;;5038048;28;20213;-55
2021/03/26 11:20:02;;;;;;;5.43;4.33;;;22.70;20.70;;;;;;5030294;28;20206;-58
2021/03/26 11:22:28;;;;;;;6.10;5.17;;;22.60;20.20;;;;;;5037318;28;20207;-58
2021/03/26 11:24:54;;;;;;;7.30;4.73;;;22.60;20.50;;;;;;5032190;28;20226;-56
2021/03/26 11:27:20;;;;;;;7.40;4.97;;;22.60;20.30;;;;;;5041559;28;20200;-59
2021/03/26 11:29:47;;;;;;;5.57;4.57;;;22.60;20.40;;;;;;5037299;28;20209;-56
2021/03/26 11:32:13;;;;;;;6.73;4.07;;;22.60;20.50;;;;;;5031619;28;20559;-55
2021/03/26 11:34:39;;;;;;;5.87;4.10;;;22.60;20.50;;;;;;5024139;28;20237;-56
2021/03/26 11:37:05;;;;;;;5.57;4.37;;;22.60;20.50;;;;;;5030301;28;20216;-53
2021/03/26 11:39:31;;;;;;;6.10;4.23;;;22.60;20.50;;;;;;5030856;28;20213;-56
2021/03/26 11:41:57;;;;;;;7.97;4.37;;;22.60;20.40;;;;;;5031790;28;20288;-52
2021/03/26 11:44:23;;;;;;;5.37;4.43;;;22.60;20.40;;;;;;5001902;28;20330;-49
2021/03/26 11:46:50;;;;;;;7.80;4.90;;;22.60;20.40;;;;;;5002177;28;20342;-54
2021/03/26 11:49:16;;;;;;;5.30;4.17;;;22.60;20.30;;;;;;4992825;28;20301;-51
2021/03/26 11:51:42;;;;;;;5.33;4.20;;;22.60;20.40;;;;;;4996383;28;20572;-55
2021/03/26 11:54:08;;;;;;;6.73;4.47;;;22.60;20.50;;;;;;4991160;28;20274;-52
2021/03/26 11:56:34;;;;;;;5.23;4.37;;;22.60;20.40;;;;;;5001400;28;20210;-54
2021/03/26 11:59:00;;;;;;;8.53;5.40;;;22.60;20.10;;;;;;4987429;28;20203;-56
2021/03/26 12:01:26;;;;;;;5.27;4.13;;;22.60;20.20;;;;;;4988412;28;20207;-56
2021/03/26 12:03:52;;;;;;;6.97;4.57;;;22.60;20.20;;;;;;4992879;28;20635;-55
2021/03/26 12:06:18;;;;;;;16.07;5.27;;;22.60;20.20;;;;;;4989918;28;20215;-53
2021/03/26 12:08:44;;;;;;;8.53;4.83;;;22.50;20.10;;;;;;4993446;28;20608;-54
2021/03/26 12:11:10;;;;;;;6.37;4.33;;;22.60;20.20;;;;;;4992926;28;20217;-56
2021/03/26 12:13:36;;;;;;;6.03;4.40;;;22.50;20.10;;;;;;4992836;28;20241;-53
2021/03/26 12:16:02;;;;;;;7.90;4.20;;;22.50;20.10;;;;;;4992371;28;20646;-53
2021/03/26 12:18:28;;;;;;;4.83;3.73;;;22.60;20.20;;;;;;4990473;28;20207;-50
2021/03/26 12:20:54;;;;;;;6.13;4.03;;;22.50;20.30;;;;;;4990897;28;20296;-56
2021/03/26 12:23:20;;;;;;;5.33;3.80;;;22.60;20.50;;;;;;4987839;28;20241;-57
2021/03/26 12:25:46;;;;;;;6.00;3.70;;;22.60;20.50;;;;;;4993004;28;20611;-58
2021/03/26 12:28:12;;;;;;;6.40;4.83;;;22.60;20.40;;;;;;4990595;28;20295;-57
2021/03/26 12:30:38;;;;;;;6.10;4.27;;;22.60;19.90;;;;;;4991346;28;20239;-57
2021/03/26 12:33:06;;;;;;;5.67;4.03;;;22.50;19.80;;;;;;4991740;28;20573;-56
2021/03/26 12:35:32;;;;;;;5.90;4.23;;;22.50;19.80;;;;;;4986268;28;20231;-57
2021/03/26 12:37:58;;;;;;;6.87;4.33;;;22.50;19.80;;;;;;4978517;28;20211;-56